Time;durP1;ratioP1;P1;durP2;ratioP2;P2;SDS_P1;SDS_P2;PMS_P1;PMS_P2;Temp;Humidity;BMP_temperature;BMP_pressure;BME280_temperature;BME280_humidity;BME280_pressure;Samples;Min_cycle;Max_cycle;Signal;HPM_P1;HPM_P2
2023/12/12 00:00:42;;;;;;;17.95;15.68;;;9.60;99.90;;;;;;5033964;28;20029;-64
2023/12/12 00:03:07;;;;;;;19.85;15.77;;;9.60;99.90;;;;;;5033781;28;20025;-65
2023/12/12 00:05:33;;;;;;;17.38;15.55;;;9.60;99.90;;;;;;5033628;28;20028;-66
2023/12/12 00:08:00;;;;;;;24.10;18.88;;;9.60;99.90;;;;;;5033851;28;20391;-63
2023/12/12 00:10:25;;;;;;;20.48;17.55;;;9.60;99.90;;;;;;5033751;28;20132;-63
2023/12/12 00:12:52;;;;;;;23.55;19.67;;;9.60;99.90;;;;;;5033856;28;20113;-59
2023/12/12 00:15:18;;;;;;;21.70;18.75;;;9.50;99.90;;;;;;5032458;28;20021;-65
2023/12/12 00:17:43;;;;;;;20.48;17.85;;;9.50;99.90;;;;;;5033352;28;20387;-65
2023/12/12 00:20:10;;;;;;;26.75;21.33;;;9.50;99.90;;;;;;5033121;28;20026;-65
2023/12/12 00:22:36;;;;;;;21.65;19.00;;;9.50;99.90;;;;;;5032265;28;20438;-63
2023/12/12 00:25:02;;;;;;;24.92;20.80;;;9.50;99.90;;;;;;5033541;28;20048;-64
2023/12/12 00:27:28;;;;;;;21.80;19.05;;;9.50;99.90;;;;;;5033366;28;20407;-61
2023/12/12 00:29:55;;;;;;;39.60;31.85;;;9.60;99.90;;;;;;5033325;28;20032;-64
2023/12/12 00:32:20;;;;;;;32.80;26.42;;;9.60;99.90;;;;;;5033395;28;20027;-68
2023/12/12 00:34:46;;;;;;;27.48;23.77;;;9.50;99.90;;;;;;5033424;28;20025;-64
2023/12/12 00:37:12;;;;;;;26.02;22.08;;;9.40;99.90;;;;;;5033272;28;20029;-63
2023/12/12 00:39:39;;;;;;;22.92;19.38;;;9.50;99.90;;;;;;5033170;28;20025;-60
2023/12/12 00:42:05;;;;;;;19.85;17.70;;;9.50;99.90;;;;;;5033211;28;20021;-67
2023/12/12 00:44:31;;;;;;;18.20;15.75;;;9.60;99.90;;;;;;5033318;28;20120;-67
2023/12/12 00:46:57;;;;;;;15.95;13.63;;;9.60;99.90;;;;;;5033132;28;20108;-65
2023/12/12 00:49:22;;;;;;;15.68;12.80;;;9.60;99.90;;;;;;5032834;28;20447;-63
2023/12/12 00:51:48;;;;;;;13.43;11.77;;;9.60;99.90;;;;;;5033019;28;20056;-64
2023/12/12 00:54:14;;;;;;;13.90;12.10;;;9.70;99.90;;;;;;5033240;28;20072;-65
2023/12/12 00:56:39;;;;;;;11.30;10.15;;;9.70;99.90;;;;;;5033058;28;20424;-66
2023/12/12 00:59:05;;;;;;;11.20;9.57;;;9.60;99.90;;;;;;5032888;28;20136;-61
2023/12/12 01:01:31;;;;;;;10.10;8.90;;;9.70;99.90;;;;;;5033021;28;20100;-63
2023/12/12 01:03:56;;;;;;;8.73;7.72;;;9.60;99.90;;;;;;5032897;28;20017;-63
2023/12/12 01:06:26;;;;;;;8.70;7.22;;;9.70;99.90;;;;;;5032989;28;20029;-63
2023/12/12 01:08:51;;;;;;;10.20;8.98;;;9.60;99.90;;;;;;5032999;28;20021;-67
2023/12/12 01:11:18;;;;;;;12.60;10.63;;;9.70;99.90;;;;;;5033289;28;20033;-65
2023/12/12 01:13:44;;;;;;;15.27;12.73;;;9.70;99.90;;;;;;5032900;28;20091;-63
2023/12/12 01:16:10;;;;;;;14.02;11.00;;;9.60;99.90;;;;;;5033098;28;20030;-61
2023/12/12 01:18:36;;;;;;;20.00;16.25;;;9.70;99.90;;;;;;5032658;28;20033;-66
2023/12/12 01:21:05;;;;;;;13.95;11.88;;;9.70;99.90;;;;;;5032899;28;20021;-65
2023/12/12 01:23:53;;;;;;;13.82;11.70;;;9.70;99.90;;;;;;5032983;28;20072;-62
2023/12/12 01:26:21;;;;;;;18.05;13.93;;;9.70;99.90;;;;;;5032736;28;20022;-68
2023/12/12 01:28:48;;;;;;;18.02;14.50;;;9.70;99.90;;;;;;5032917;28;20017;-63
2023/12/12 01:31:17;;;;;;;17.27;13.82;;;9.70;99.90;;;;;;5034897;28;20052;-65
2023/12/12 01:33:43;;;;;;;19.58;16.13;;;9.80;99.90;;;;;;5036468;28;20029;-63
2023/12/12 01:36:10;;;;;;;19.13;15.52;;;9.70;99.90;;;;;;5036595;28;20032;-65
2023/12/12 01:38:36;;;;;;;19.65;16.13;;;9.80;99.90;;;;;;5036490;28;20052;-66
2023/12/12 01:41:02;;;;;;;21.60;18.20;;;9.80;99.90;;;;;;5036502;28;20036;-65
2023/12/12 01:43:29;;;;;;;22.88;18.70;;;9.80;99.90;;;;;;5036438;28;20387;-65
2023/12/12 01:45:58;;;;;;;20.23;17.17;;;9.80;99.90;;;;;;5036559;28;20022;-66
2023/12/12 01:48:24;;;;;;;16.52;14.82;;;9.70;99.90;;;;;;5036042;28;20141;-65
2023/12/12 01:50:51;;;;;;;17.92;15.23;;;9.80;99.90;;;;;;5036290;28;20440;-62
2023/12/12 01:53:23;;;;;;;19.55;16.83;;;9.70;99.90;;;;;;5036335;28;20052;-62
2023/12/12 01:55:51;;;;;;;18.25;16.30;;;9.70;99.90;;;;;;5036172;28;20021;-62
2023/12/12 01:58:18;;;;;;;16.85;14.10;;;9.70;99.90;;;;;;5036088;28;20080;-66
2023/12/12 02:00:44;;;;;;;16.85;14.43;;;9.70;99.90;;;;;;5036230;28;20053;-60
2023/12/12 02:03:11;;;;;;;15.13;13.27;;;9.80;99.90;;;;;;5035859;28;20021;-67
2023/12/12 02:05:39;;;;;;;13.65;12.13;;;9.70;99.90;;;;;;5036163;28;20017;-64
2023/12/12 02:08:05;;;;;;;14.15;11.57;;;9.80;99.90;;;;;;5036038;28;20029;-66
2023/12/12 02:10:31;;;;;;;15.02;12.52;;;9.70;99.90;;;;;;5034663;28;20021;-66
2023/12/12 02:12:57;;;;;;;11.50;10.25;;;9.80;99.90;;;;;;5036039;28;20025;-62
2023/12/12 02:15:23;;;;;;;10.25;9.00;;;9.80;99.90;;;;;;5035835;28;20025;-62
2023/12/12 02:17:49;;;;;;;9.35;8.30;;;9.70;99.90;;;;;;5035715;28;20021;-64
2023/12/12 02:20:15;;;;;;;9.65;8.15;;;9.70;99.90;;;;;;5035694;28;20032;-67
2023/12/12 02:22:42;;;;;;;9.07;7.63;;;9.70;99.90;;;;;;5035778;28;20104;-65
2023/12/12 02:25:08;;;;;;;8.73;7.60;;;9.80;99.90;;;;;;5035634;28;20075;-65
2023/12/12 02:27:35;;;;;;;7.18;6.45;;;9.80;99.90;;;;;;5035535;28;20021;-64
2023/12/12 02:30:01;;;;;;;6.95;6.25;;;9.80;99.90;;;;;;5034229;28;20455;-65
2023/12/12 02:32:29;;;;;;;9.60;8.60;;;9.80;99.90;;;;;;5035443;28;20104;-64
2023/12/12 02:34:54;;;;;;;11.95;9.82;;;9.70;99.90;;;;;;5035387;28;20444;-66
2023/12/12 02:37:21;;;;;;;9.38;8.35;;;9.70;99.90;;;;;;5035544;28;20112;-65
2023/12/12 02:39:46;;;;;;;8.65;7.75;;;9.60;99.90;;;;;;5035344;28;20109;-62
2023/12/12 02:42:12;;;;;;;9.05;7.63;;;9.50;99.90;;;;;;5034874;28;20053;-68
2023/12/12 02:44:38;;;;;;;7.55;6.10;;;9.50;99.90;;;;;;5035314;28;20033;-57
2023/12/12 02:47:03;;;;;;;8.35;7.53;;;9.50;99.90;;;;;;5035112;28;20017;-62
2023/12/12 02:49:29;;;;;;;14.02;12.02;;;9.50;99.90;;;;;;5035384;28;20418;-62
2023/12/12 02:51:55;;;;;;;11.82;10.00;;;9.50;99.90;;;;;;5035228;28;20018;-68
2023/12/12 02:54:20;;;;;;;9.63;8.63;;;9.50;99.90;;;;;;5035228;28;20061;-64
2023/12/12 02:56:46;;;;;;;16.48;13.63;;;9.50;99.90;;;;;;5035034;28;20029;-61
2023/12/12 02:59:12;;;;;;;11.50;10.30;;;9.50;99.90;;;;;;5034922;28;20101;-63
2023/12/12 03:01:37;;;;;;;11.43;9.93;;;9.50;99.90;;;;;;5035104;28;20025;-60
2023/12/12 03:04:03;;;;;;;9.57;8.55;;;9.60;99.90;;;;;;5034962;28;20073;-62
2023/12/12 03:06:29;;;;;;;10.70;9.60;;;9.60;99.90;;;;;;5033521;28;20071;-68
2023/12/12 03:08:54;;;;;;;10.88;9.20;;;9.60;99.90;;;;;;5034923;28;20031;-67
2023/12/12 03:11:20;;;;;;;9.00;8.07;;;9.70;99.90;;;;;;5034840;28;20025;-62
2023/12/12 03:13:46;;;;;;;8.35;7.45;;;9.60;99.90;;;;;;5034563;28;20025;-67
2023/12/12 03:16:11;;;;;;;8.20;7.40;;;9.50;99.90;;;;;;5034696;28;20024;-67
2023/12/12 03:18:37;;;;;;;8.02;7.25;;;9.50;99.90;;;;;;5034683;28;20021;-66
2023/12/12 03:21:03;;;;;;;7.65;6.80;;;9.50;99.90;;;;;;5034509;28;20029;-68
2023/12/12 03:23:29;;;;;;;7.13;6.35;;;9.50;99.90;;;;;;5034755;28;20464;-65
2023/12/12 03:25:54;;;;;;;6.57;5.65;;;9.50;99.90;;;;;;5034585;28;20467;-60
2023/12/12 03:28:20;;;;;;;7.45;6.28;;;9.50;99.90;;;;;;5034471;28;20562;-66
2023/12/12 03:30:46;;;;;;;6.95;5.70;;;9.50;99.90;;;;;;5034120;28;20407;-67
2023/12/12 03:33:11;;;;;;;5.93;4.90;;;9.50;99.90;;;;;;5034393;28;20022;-62
2023/12/12 03:35:37;;;;;;;9.38;8.38;;;9.60;99.90;;;;;;5034298;28;20116;-65
2023/12/12 03:38:03;;;;;;;6.85;6.15;;;9.60;99.90;;;;;;5034147;28;20368;-63
2023/12/12 03:40:29;;;;;;;9.98;8.43;;;9.50;99.90;;;;;;5034405;28;20033;-61
2023/12/12 03:42:54;;;;;;;8.38;7.50;;;9.50;99.90;;;;;;5034155;28;20064;-59
2023/12/12 03:45:20;;;;;;;6.90;6.13;;;9.60;99.90;;;;;;5033906;28;20048;-67
2023/12/12 03:47:46;;;;;;;7.63;6.82;;;9.60;99.90;;;;;;5034042;28;20438;-60
2023/12/12 03:50:12;;;;;;;8.35;7.43;;;9.70;99.90;;;;;;5034150;28;20022;-63
2023/12/12 03:52:39;;;;;;;7.78;7.05;;;9.70;99.90;;;;;;5033625;28;20064;-63
2023/12/12 03:55:07;;;;;;;10.82;9.20;;;9.70;99.90;;;;;;5033724;28;20104;-62
2023/12/12 03:57:32;;;;;;;13.27;10.73;;;9.70;99.90;;;;;;5034055;28;20109;-64
2023/12/12 03:59:58;;;;;;;11.13;9.20;;;9.70;99.90;;;;;;5033664;28;20116;-64
2023/12/12 04:02:24;;;;;;;12.15;9.63;;;9.60;99.90;;;;;;5033793;28;20490;-63
2023/12/12 04:04:49;;;;;;;12.30;10.25;;;9.70;99.90;;;;;;5033932;28;20025;-66
2023/12/12 04:07:17;;;;;;;11.90;10.57;;;9.70;99.90;;;;;;5033692;28;20498;-65
2023/12/12 04:09:43;;;;;;;16.13;13.80;;;9.70;99.90;;;;;;5033749;28;20071;-67
2023/12/12 04:12:08;;;;;;;13.15;11.07;;;9.60;99.90;;;;;;5033656;28;20018;-62
2023/12/12 04:14:34;;;;;;;11.48;10.13;;;9.50;99.90;;;;;;5033596;28;20495;-64
2023/12/12 04:17:00;;;;;;;14.85;12.18;;;9.60;99.90;;;;;;5033568;28;20498;-66
2023/12/12 04:19:26;;;;;;;12.77;10.88;;;9.60;99.90;;;;;;5033406;28;20021;-60
2023/12/12 04:21:52;;;;;;;14.27;11.98;;;9.60;99.90;;;;;;5033879;28;20032;-63
2023/12/12 04:24:17;;;;;;;14.15;11.52;;;9.60;99.90;;;;;;5033450;28;20036;-65
2023/12/12 04:26:43;;;;;;;17.65;13.93;;;9.60;99.90;;;;;;5033427;28;20064;-63
2023/12/12 04:29:09;;;;;;;17.63;14.82;;;9.60;99.90;;;;;;5033295;28;20030;-67
2023/12/12 04:31:36;;;;;;;13.90;12.23;;;9.50;99.90;;;;;;5033338;28;20032;-63
2023/12/12 04:34:02;;;;;;;17.15;14.18;;;9.50;99.90;;;;;;5033584;28;20460;-65
2023/12/12 04:36:28;;;;;;;22.65;18.42;;;9.50;99.90;;;;;;5033378;28;20036;-65
2023/12/12 04:38:53;;;;;;;16.67;14.32;;;9.40;99.90;;;;;;5033212;28;20036;-59
2023/12/12 04:41:19;;;;;;;16.65;14.10;;;9.30;99.90;;;;;;5033214;28;20034;-62
2023/12/12 04:43:45;;;;;;;18.73;16.23;;;9.30;99.90;;;;;;5033083;28;20031;-62
2023/12/12 04:46:20;;;;;;;13.30;11.90;;;9.40;99.90;;;;;;5033217;28;20100;-62
2023/12/12 04:48:46;;;;;;;17.95;14.05;;;9.40;99.90;;;;;;5033019;28;20065;-65
2023/12/12 04:51:12;;;;;;;16.77;14.15;;;9.40;99.90;;;;;;5033218;28;20064;-64
2023/12/12 04:53:38;;;;;;;21.98;19.40;;;9.40;99.90;;;;;;5033173;28;20475;-62
2023/12/12 04:56:05;;;;;;;24.23;20.00;;;9.40;99.90;;;;;;5033046;28;20032;-62
2023/12/12 04:58:31;;;;;;;33.90;27.50;;;9.30;99.90;;;;;;5033141;28;20053;-59
2023/12/12 05:00:56;;;;;;;27.70;24.33;;;9.30;99.90;;;;;;5033124;28;20057;-67
2023/12/12 05:03:22;;;;;;;23.33;20.10;;;9.20;99.90;;;;;;5033071;28;20021;-61
2023/12/12 05:05:48;;;;;;;20.48;17.80;;;9.30;99.90;;;;;;5036282;28;20060;-58
2023/12/12 05:08:14;;;;;;;17.05;15.25;;;9.30;99.90;;;;;;5037206;28;20026;-60
2023/12/12 05:10:40;;;;;;;15.20;13.63;;;9.40;99.90;;;;;;5036928;28;20378;-62
2023/12/12 05:13:06;;;;;;;26.27;19.35;;;9.40;99.90;;;;;;5037084;28;20021;-69
2023/12/12 05:15:31;;;;;;;17.73;15.93;;;9.40;99.90;;;;;;5037495;28;20021;-61
2023/12/12 05:17:57;;;;;;;14.95;13.40;;;9.40;99.90;;;;;;5036875;28;20376;-67
2023/12/12 05:20:23;;;;;;;14.90;13.30;;;9.40;99.90;;;;;;5037005;28;20079;-64
2023/12/12 05:22:48;;;;;;;13.68;11.80;;;9.50;99.90;;;;;;5036821;28;20021;-68
2023/12/12 05:25:14;;;;;;;52.80;43.35;;;9.50;99.90;;;;;;5036599;28;20483;-63
2023/12/12 05:27:40;;;;;;;24.95;22.05;;;9.40;99.90;;;;;;5036937;28;20108;-62
2023/12/12 05:30:06;;;;;;;21.85;18.48;;;9.30;99.90;;;;;;5036698;28;20391;-62
2023/12/12 05:32:32;;;;;;;17.70;15.77;;;9.30;99.90;;;;;;5036666;28;20022;-66
2023/12/12 05:34:57;;;;;;;18.10;16.20;;;9.30;99.90;;;;;;5036586;28;20022;-63
2023/12/12 05:37:23;;;;;;;14.95;13.40;;;9.30;99.90;;;;;;5036600;28;20072;-65
2023/12/12 05:39:49;;;;;;;14.70;13.20;;;9.20;99.90;;;;;;5036366;28;20026;-66
2023/12/12 05:42:15;;;;;;;13.82;12.43;;;9.10;99.90;;;;;;5036462;28;20022;-61
2023/12/12 05:44:41;;;;;;;12.98;11.68;;;9.20;99.90;;;;;;5036402;28;20025;-68
2023/12/12 05:47:07;;;;;;;12.68;11.35;;;9.20;99.90;;;;;;5036210;28;20022;-66
2023/12/12 05:49:32;;;;;;;11.38;10.27;;;9.20;99.90;;;;;;5036343;28;20080;-60
2023/12/12 05:52:00;;;;;;;11.15;9.85;;;9.30;99.90;;;;;;5036288;28;20024;-59
2023/12/12 05:54:25;;;;;;;12.18;10.88;;;9.30;99.90;;;;;;5036150;28;20022;-65
2023/12/12 05:56:51;;;;;;;15.52;13.93;;;9.30;99.90;;;;;;5036101;28;20021;-61
2023/12/12 05:59:17;;;;;;;12.07;10.90;;;9.20;99.90;;;;;;5036091;28;20064;-65
2023/12/12 06:01:43;;;;;;;11.82;10.73;;;9.20;99.90;;;;;;5036169;28;20036;-67
2023/12/12 06:04:14;;;;;;;11.77;10.57;;;9.20;99.90;;;;;;5035975;28;20029;-65
2023/12/12 06:06:42;;;;;;;10.57;9.57;;;9.10;99.90;;;;;;5036049;28;20118;-62
2023/12/12 06:09:09;;;;;;;13.98;11.98;;;9.10;99.90;;;;;;5035919;28;20029;-68
2023/12/12 06:11:36;;;;;;;11.55;10.45;;;9.10;99.90;;;;;;5035938;28;20029;-59
2023/12/12 06:14:03;;;;;;;11.85;10.05;;;9.10;99.90;;;;;;5035994;28;20029;-65
2023/12/12 06:16:33;;;;;;;10.75;9.65;;;9.10;99.90;;;;;;5035119;28;20108;-65
2023/12/12 06:18:59;;;;;;;11.63;10.40;;;9.10;99.90;;;;;;5035665;28;20030;-64
2023/12/12 06:21:25;;;;;;;15.15;13.05;;;9.00;99.90;;;;;;5035880;28;20026;-66
2023/12/12 06:23:50;;;;;;;14.70;13.20;;;9.00;99.90;;;;;;5035746;28;20091;-65
2023/12/12 06:26:16;;;;;;;12.27;10.98;;;9.00;99.90;;;;;;5035576;28;20035;-61
2023/12/12 06:28:42;;;;;;;20.27;17.00;;;8.90;99.90;;;;;;5035473;28;20068;-66
2023/12/12 06:31:08;;;;;;;66.40;49.65;;;8.90;99.90;;;;;;5035290;28;20033;-66
2023/12/12 06:33:34;;;;;;;35.92;30.23;;;8.90;99.90;;;;;;5033950;28;20029;-64
2023/12/12 06:35:59;;;;;;;27.45;23.38;;;8.80;99.90;;;;;;5035269;28;20017;-65
2023/12/12 06:38:25;;;;;;;23.45;20.95;;;8.90;99.90;;;;;;5035467;28;20037;-66
2023/12/12 06:40:52;;;;;;;22.65;19.00;;;8.90;99.90;;;;;;5035310;28;20028;-65
2023/12/12 06:43:18;;;;;;;19.85;17.70;;;9.00;99.90;;;;;;5033696;28;20502;-64
2023/12/12 06:45:44;;;;;;;19.45;17.45;;;9.10;99.90;;;;;;5048057;28;20025;-65
2023/12/12 06:48:11;;;;;;;19.05;17.05;;;9.10;99.90;;;;;;5053719;28;20049;-63
2023/12/12 06:50:37;;;;;;;16.95;15.02;;;9.20;99.90;;;;;;5053001;28;20099;-70
2023/12/12 06:53:03;;;;;;;16.52;14.90;;;9.20;99.90;;;;;;5022056;28;20109;-65
2023/12/12 06:55:28;;;;;;;16.55;14.85;;;9.20;99.90;;;;;;5029747;28;20081;-66
2023/12/12 06:57:54;;;;;;;17.77;15.55;;;9.20;99.90;;;;;;5032896;28;20025;-70
2023/12/12 07:00:20;;;;;;;21.02;17.38;;;9.20;99.90;;;;;;5014258;28;20030;-64
2023/12/12 07:02:45;;;;;;;24.85;22.15;;;9.30;99.90;;;;;;5011911;28;20109;-69
2023/12/12 07:05:15;;;;;;;19.05;17.10;;;9.20;99.90;;;;;;5030720;28;20026;-66
2023/12/12 07:07:40;;;;;;;17.20;15.45;;;9.10;99.90;;;;;;5033007;28;20026;-64
2023/12/12 07:10:06;;;;;;;26.35;21.67;;;9.00;99.90;;;;;;5031651;28;20036;-72
2023/12/12 07:12:33;;;;;;;22.77;20.38;;;9.10;99.90;;;;;;5033324;28;20096;-69
2023/12/12 07:14:59;;;;;;;22.27;19.98;;;9.10;99.90;;;;;;5019035;28;20072;-68
2023/12/12 07:17:24;;;;;;;24.08;21.58;;;9.00;99.90;;;;;;5013703;28;20053;-65
2023/12/12 07:19:50;;;;;;;25.60;22.90;;;9.00;99.90;;;;;;5013324;28;20029;-67
2023/12/12 07:22:16;;;;;;;22.83;20.33;;;9.00;99.90;;;;;;5014137;28;20101;-64
2023/12/12 07:24:41;;;;;;;20.08;17.88;;;9.00;99.90;;;;;;5014449;28;20022;-61
2023/12/12 07:27:07;;;;;;;19.58;16.75;;;9.00;99.90;;;;;;5014523;28;20473;-64
2023/12/12 07:29:33;;;;;;;17.42;15.55;;;8.90;99.90;;;;;;5012542;28;20456;-66
2023/12/12 07:31:59;;;;;;;21.45;17.60;;;9.00;99.90;;;;;;5013115;28;20101;-62
2023/12/12 07:34:25;;;;;;;31.35;25.88;;;9.00;99.90;;;;;;5013629;28;20057;-68
2023/12/12 07:36:54;;;;;;;32.15;27.50;;;9.10;99.90;;;;;;5014405;28;20069;-62
2023/12/12 07:39:20;;;;;;;39.38;32.53;;;9.70;99.90;;;;;;5028817;28;20382;-63
2023/12/12 07:41:46;;;;;;;26.45;23.13;;;10.20;99.90;;;;;;5015299;28;20468;-63
2023/12/12 07:44:12;;;;;;;27.70;23.55;;;10.70;99.90;;;;;;5014425;28;20036;-66
2023/12/12 07:46:38;;;;;;;29.50;24.17;;;11.50;99.90;;;;;;5012726;28;20029;-60
2023/12/12 07:49:04;;;;;;;27.67;22.63;;;12.60;99.90;;;;;;5014837;28;20041;-65
2023/12/12 07:51:32;;;;;;;32.30;26.27;;;14.20;97.90;;;;;;5024501;28;20396;-65
2023/12/12 07:53:58;;;;;;;78.88;64.75;;;16.00;83.70;;;;;;5015654;28;20026;-66
2023/12/12 07:56:24;;;;;;;78.57;67.72;;;16.90;63.60;;;;;;5025633;28;20021;-64
2023/12/12 07:58:50;;;;;;;61.40;53.70;;;16.80;61.70;;;;;;5012138;28;20165;-66
2023/12/12 08:01:16;;;;;;;63.55;55.20;;;16.30;65.30;;;;;;5031596;28;20041;-66
2023/12/12 08:03:41;;;;;;;65.03;55.88;;;15.90;65.70;;;;;;5033946;28;20022;-64
2023/12/12 08:06:08;;;;;;;62.47;54.25;;;15.60;67.30;;;;;;5033409;28;20022;-61
2023/12/12 08:08:34;;;;;;;58.58;50.72;;;16.40;69.70;;;;;;5033638;28;20463;-67
2023/12/12 08:11:00;;;;;;;58.00;51.58;;;16.00;64.70;;;;;;5033342;28;20024;-66
2023/12/12 08:13:27;;;;;;;53.22;47.33;;;14.90;69.90;;;;;;5033666;28;20021;-68
2023/12/12 08:15:53;;;;;;;50.60;45.15;;;14.00;87.10;;;;;;5032272;28;20076;-63
2023/12/12 08:18:18;;;;;;;49.42;44.13;;;13.60;93.10;;;;;;5032728;28;20021;-68
2023/12/12 08:20:44;;;;;;;46.22;41.42;;;13.30;95.20;;;;;;5030903;28;20369;-63
2023/12/12 08:23:10;;;;;;;47.50;42.42;;;13.10;97.60;;;;;;5031837;28;20423;-65
2023/12/12 08:25:36;;;;;;;44.55;39.80;;;13.00;99.20;;;;;;5032025;28;20029;-65
2023/12/12 08:28:03;;;;;;;40.83;36.53;;;12.90;99.50;;;;;;5030679;28;20017;-65
2023/12/12 08:30:28;;;;;;;38.13;34.20;;;12.90;99.90;;;;;;5031831;28;20383;-66
2023/12/12 08:32:54;;;;;;;33.20;29.80;;;12.80;99.90;;;;;;5030872;28;20021;-66
2023/12/12 08:35:20;;;;;;;29.58;26.58;;;12.70;99.90;;;;;;5018319;28;20061;-66
2023/12/12 08:37:46;;;;;;;28.63;25.55;;;12.60;99.90;;;;;;5023232;28;20639;-68
2023/12/12 08:40:12;;;;;;;29.05;26.05;;;12.50;99.90;;;;;;5025360;28;20475;-65
2023/12/12 08:42:39;;;;;;;26.83;24.13;;;12.50;99.90;;;;;;5029664;28;20464;-65
2023/12/12 08:45:05;;;;;;;26.67;23.92;;;12.60;99.90;;;;;;5027022;28;20456;-61
2023/12/12 08:47:31;;;;;;;24.80;22.13;;;12.70;99.90;;;;;;5033994;28;20071;-62
2023/12/12 08:49:59;;;;;;;24.45;21.50;;;12.80;99.90;;;;;;5035226;28;20045;-61
2023/12/12 08:52:26;;;;;;;21.92;19.67;;;13.00;99.90;;;;;;5023934;28;20491;-68
2023/12/12 08:54:52;;;;;;;19.27;17.38;;;13.10;99.90;;;;;;5032133;28;20503;-67
2023/12/12 08:57:19;;;;;;;21.38;19.23;;;13.20;99.90;;;;;;5026209;28;20022;-67
2023/12/12 08:59:45;;;;;;;20.40;18.23;;;13.20;99.90;;;;;;5030401;28;20071;-71
2023/12/12 09:02:10;;;;;;;18.88;17.08;;;13.30;99.90;;;;;;5026998;28;20049;-66
2023/12/12 09:04:37;;;;;;;19.55;17.60;;;13.70;99.90;;;;;;5024946;28;20022;-70
2023/12/12 09:07:06;;;;;;;22.50;20.10;;;13.80;99.10;;;;;;5027535;28;20040;-64
2023/12/12 09:09:33;;;;;;;41.13;36.13;;;13.70;98.30;;;;;;5024120;28;20032;-65
2023/12/12 09:12:00;;;;;;;30.17;27.05;;;13.60;98.50;;;;;;5027826;28;20017;-68
2023/12/12 09:14:27;;;;;;;30.10;26.88;;;13.40;99.90;;;;;;5029986;28;20464;-76
2023/12/12 09:16:53;;;;;;;25.05;22.65;;;13.30;99.90;;;;;;5031654;28;20434;-65
2023/12/12 09:19:19;;;;;;;23.98;21.58;;;13.30;99.90;;;;;;5031278;28;20105;-64
2023/12/12 09:21:45;;;;;;;24.88;22.27;;;13.30;99.90;;;;;;5028598;28;20491;-69
2023/12/12 09:24:10;;;;;;;24.48;21.88;;;13.40;99.90;;;;;;5027761;28;20028;-66
2023/12/12 09:26:36;;;;;;;22.27;20.08;;;13.50;99.90;;;;;;5030670;28;20378;-68
2023/12/12 09:29:02;;;;;;;22.60;20.30;;;13.60;99.90;;;;;;5026971;28;20025;-65
2023/12/12 09:31:29;;;;;;;22.45;20.25;;;14.20;99.90;;;;;;5032026;28;20024;-65
2023/12/12 09:33:55;;;;;;;22.83;20.52;;;14.40;99.70;;;;;;5048947;28;20025;-63
2023/12/12 09:36:21;;;;;;;25.90;23.20;;;14.50;99.20;;;;;;5036422;28;20045;-67
2023/12/12 09:38:47;;;;;;;22.42;20.23;;;14.60;98.50;;;;;;5022556;28;20396;-63
2023/12/12 09:41:32;;;;;;;22.83;20.42;;;14.80;98.50;;;;;;5036678;28;20021;-65
2023/12/12 09:43:59;;;;;;;22.67;20.27;;;15.30;96.40;;;;;;5022637;28;20495;-64
2023/12/12 09:46:25;;;;;;;22.50;20.27;;;15.40;94.00;;;;;;5035608;28;20036;-61
2023/12/12 09:48:52;;;;;;;20.95;18.83;;;15.40;94.20;;;;;;5047167;28;20097;-66
2023/12/12 09:51:17;;;;;;;23.33;20.83;;;15.70;95.30;;;;;;5041722;28;20040;-61
2023/12/12 09:53:46;;;;;;;23.15;20.23;;;16.20;92.50;;;;;;5035393;28;20021;-66
2023/12/12 09:56:16;;;;;;;19.67;17.73;;;16.60;85.80;;;;;;5042430;28;20472;-65
2023/12/12 09:58:47;;;;;;;21.70;19.55;;;16.60;81.60;;;;;;5036547;28;20052;-63
2023/12/12 10:01:15;;;;;;;25.33;22.73;;;16.70;87.00;;;;;;5031792;28;20049;-70
2023/12/12 10:03:41;;;;;;;26.33;23.52;;;16.90;83.10;;;;;;5039102;28;20408;-64
2023/12/12 10:06:10;;;;;;;30.45;27.13;;;17.00;81.20;;;;;;5037901;28;20025;-67
2023/12/12 10:08:37;;;;;;;27.70;24.80;;;17.20;77.60;;;;;;5043844;28;20032;-64
2023/12/12 10:11:05;;;;;;;33.20;29.08;;;17.30;82.50;;;;;;5045540;28;20039;-66
2023/12/12 10:13:54;;;;;;;34.30;29.42;;;17.40;82.20;;;;;;5052697;28;20056;-71
2023/12/12 10:16:20;;;;;;;30.80;27.50;;;17.70;78.00;;;;;;5043140;28;20029;-67
2023/12/12 10:18:46;;;;;;;34.53;30.33;;;17.90;87.40;;;;;;5034546;28;20034;-63
2023/12/12 10:21:22;;;;;;;39.95;33.30;;;18.30;76.80;;;;;;5035344;28;20347;-64
2023/12/12 10:23:51;;;;;;;37.22;32.03;;;18.30;67.80;;;;;;5046765;28;20112;-70
2023/12/12 10:26:31;;;;;;;35.42;31.58;;;18.20;69.10;;;;;;5045078;28;20037;-62
2023/12/12 10:29:01;;;;;;;37.53;32.60;;;18.20;74.60;;;;;;5025748;28;20029;-63
2023/12/12 10:31:26;;;;;;;32.50;29.08;;;18.30;66.10;;;;;;5031838;28;20108;-73
2023/12/12 10:33:54;;;;;;;28.58;25.52;;;18.40;70.60;;;;;;5022075;28;20577;-66
2023/12/12 10:36:21;;;;;;;24.27;21.67;;;18.60;66.90;;;;;;5026594;28;20033;-68
2023/12/12 10:38:46;;;;;;;22.58;20.27;;;18.90;65.40;;;;;;5026052;28;20029;-68
2023/12/12 10:41:13;;;;;;;19.05;17.05;;;19.20;61.80;;;;;;5031082;28;20521;-67
2023/12/12 10:43:40;;;;;;;17.90;16.13;;;19.20;59.40;;;;;;5031463;28;20026;-67
2023/12/12 10:46:13;;;;;;;16.60;15.00;;;19.30;59.20;;;;;;5041268;28;20621;-66
2023/12/12 10:48:46;;;;;;;17.83;16.13;;;19.30;58.00;;;;;;5029889;28;20560;-62
2023/12/12 10:51:13;;;;;;;18.05;16.30;;;19.40;59.00;;;;;;5031221;28;20070;-65
2023/12/12 10:53:44;;;;;;;17.15;15.50;;;19.40;59.20;;;;;;5030966;28;20026;-65
2023/12/12 10:56:11;;;;;;;15.50;14.10;;;19.50;57.90;;;;;;5031658;28;20021;-67
2023/12/12 10:58:39;;;;;;;12.35;11.25;;;19.70;58.10;;;;;;5029451;28;20116;-63
2023/12/12 11:01:07;;;;;;;11.95;10.77;;;19.90;55.50;;;;;;5032809;28;20035;-66
2023/12/12 11:03:35;;;;;;;9.80;8.90;;;20.10;56.70;;;;;;5033055;28;20033;-66
2023/12/12 11:06:01;;;;;;;8.27;7.57;;;20.20;54.50;;;;;;5033885;28;20026;-63
2023/12/12 11:08:29;;;;;;;9.60;8.80;;;20.20;54.60;;;;;;5031701;28;20488;-66
2023/12/12 11:10:55;;;;;;;10.43;9.43;;;20.40;55.30;;;;;;5032126;28;20030;-65
2023/12/12 11:13:23;;;;;;;9.57;8.73;;;20.60;54.50;;;;;;5030612;28;20429;-63
2023/12/12 11:15:52;;;;;;;9.35;8.55;;;20.80;52.60;;;;;;5033627;28;20104;-67
2023/12/12 11:18:25;;;;;;;8.50;7.75;;;21.00;51.60;;;;;;5030907;28;20038;-64
2023/12/12 11:20:54;;;;;;;7.60;6.90;;;21.10;53.40;;;;;;5030174;28;20491;-62
2023/12/12 11:23:42;;;;;;;7.55;6.88;;;21.30;51.40;;;;;;5029936;28;20034;-67
2023/12/12 11:26:09;;;;;;;9.35;8.45;;;21.40;50.50;;;;;;5029033;28;20053;-64
2023/12/12 11:28:38;;;;;;;8.57;7.78;;;21.40;51.50;;;;;;5020682;28;20092;-61
2023/12/12 11:31:04;;;;;;;8.45;7.75;;;21.20;49.60;;;;;;5017191;28;20525;-65
2023/12/12 11:33:30;;;;;;;7.97;7.20;;;21.00;51.20;;;;;;5024179;28;20033;-64
2023/12/12 11:35:56;;;;;;;7.80;7.15;;;20.90;49.80;;;;;;5029277;28;20748;-69
2023/12/12 11:38:34;;;;;;;7.65;7.03;;;20.80;51.30;;;;;;5029593;28;20075;-61
2023/12/12 11:41:12;;;;;;;8.82;7.97;;;20.80;52.40;;;;;;5030997;28;20354;-61
2023/12/12 11:43:40;;;;;;;8.75;7.95;;;20.80;51.00;;;;;;5029736;28;20021;-62
2023/12/12 11:46:21;;;;;;;7.70;7.10;;;20.80;51.90;;;;;;5031116;28;20104;-67
2023/12/12 11:48:47;;;;;;;7.65;6.95;;;21.20;53.30;;;;;;5029722;28;20095;-65
2023/12/12 11:51:34;;;;;;;9.52;8.63;;;21.40;52.30;;;;;;5029768;28;20428;-62
2023/12/12 11:54:05;;;;;;;6.90;6.40;;;21.70;49.20;;;;;;5031581;28;20472;-65
2023/12/12 11:56:31;;;;;;;6.40;5.90;;;21.60;49.40;;;;;;5031175;28;20034;-62
2023/12/12 11:59:00;;;;;;;9.20;8.30;;;21.70;49.30;;;;;;5032377;28;20033;-61
2023/12/12 12:01:26;;;;;;;8.13;7.38;;;21.70;48.20;;;;;;5032851;28;20028;-66
2023/12/12 12:03:54;;;;;;;7.88;7.18;;;21.50;49.20;;;;;;5033045;28;20013;-65
2023/12/12 12:06:20;;;;;;;7.68;7.05;;;21.30;49.70;;;;;;5031798;28;20021;-64
2023/12/12 12:08:49;;;;;;;7.05;6.50;;;21.10;49.50;;;;;;5032091;28;20040;-60
2023/12/12 12:11:14;;;;;;;27.50;24.67;;;20.90;51.20;;;;;;5033526;28;20115;-64
2023/12/12 12:13:42;;;;;;;32.00;28.42;;;20.70;51.30;;;;;;5029979;28;20021;-66
2023/12/12 12:16:09;;;;;;;42.88;38.55;;;20.10;53.40;;;;;;5030348;28;20108;-68
2023/12/12 12:18:35;;;;;;;108.03;89.03;;;19.50;56.40;;;;;;5029579;28;20683;-63
2023/12/12 12:21:07;;;;;;;102.35;90.82;;;19.10;58.10;;;;;;5032327;28;20072;-69
2023/12/12 12:23:37;;;;;;;61.50;55.00;;;18.70;60.60;;;;;;5027256;28;20028;-65
2023/12/12 12:26:03;;;;;;;60.72;54.53;;;18.40;63.40;;;;;;5028828;28;20137;-64
2023/12/12 12:28:33;;;;;;;51.45;46.38;;;18.40;67.50;;;;;;5030861;28;20029;-63
2023/12/12 12:30:59;;;;;;;58.92;52.75;;;18.60;67.70;;;;;;5031001;28;20060;-67
2023/12/12 12:33:32;;;;;;;67.60;61.22;;;18.80;73.00;;;;;;5030991;28;20021;-66
2023/12/12 12:35:58;;;;;;;53.63;48.43;;;18.60;68.10;;;;;;5029946;28;20100;-64